Aérodrome :
LOGIN :

S'inscrire | Disclaimer

   EN    FR    IT 

 










Légende :    VFR   VFR Marginal   IFR   IFR Intensif   IFR Très Intensif
Visi : 
Plafond : 
>= 8 km
>= 3000ft
5 à 8 km
1000 à 3000 ft
1500m à 5 km
500 à 1000 ft
800 à 1500m
200 à 500 ft
< 800m
< 200 ft
Symboles :   Orages  Brouillard  Fortes neiges  Fortes précipitations  Vent > 20 kt
SIGMETs :   Divers  Orages  Givrage  Turbulence  Onde Orograph.  Cendres Volcan.






- Altitude de l'aérodrome : 13 ft
- Code IATA : SNR


LFRZ - St-Nazaire

DERNIER METAR :
  • 140400Z AUTO 27007KT 9000 -DZ BKN016 OVC022 18/17 Q1015 NOSIG

METARs EXPIRÉS :
  • 140330Z AUTO 28011KT 9999 FEW010 BKN021 OVC029 18/17 Q1015 NOSIG
  • 140300Z AUTO 27007KT 9999 OVC017 18/17 Q1015 TEMPO 4000 -RA BKN006 BKN015
  • 140230Z AUTO 26008KT 9999 BKN006 OVC018 18/18 Q1015 TEMPO 4000 -RA BECMG BKN020
  • 140200Z AUTO 26007KT 7000 FEW008 SCT016 BKN022 18/17 Q1015 TEMPO 4000 -RA BKN006 BKN015

TAF TAF LFRZ
Valide du 14 à 00h jusqu'au 15 à 00h UTC


132300Z 1400/1424 26010KT 9999 BKN020
TEMPO 1400/1404 4000 -RA BKN006 BKN015



MET'MAP, la Météo Aéronautique d'un coup d'oeil ! - Copyright ORBIFLY Décembre 2007 - Disclaimer

ORBIFLY MET'MAP TEAM :

Programmation & Développement : Alexandra Zaïnal
Sur une idée originale de : Baudouin d'Aumeries
Assistance à la programmation : Marc-Olivier Méhu
Soutien technique & logistique : Manuel Goepfert

Contact : metmap@orbifly.com




SOURCES & CREDITS :

   NOAA